sensor_id;sensor_type;location;lat;lon;timestamp;noise_LAeq;noise_LA_min;noise_LA_max;noise_LA01;noise_LA95
81666;Laerm;71083;51.796;10.952;2023-07-08T00:01:08;57.37;33.04;71.76;;
81666;Laerm;71083;51.796;10.952;2023-07-08T00:03:34;60.39;33.29;75.12;;
81666;Laerm;71083;51.796;10.952;2023-07-08T00:06:00;55.02;29.91;71.14;;
81666;Laerm;71083;51.796;10.952;2023-07-08T00:08:25;57.37;29.46;72.39;;
81666;Laerm;71083;51.796;10.952;2023-07-08T00:10:50;49.07;29.76;63.29;;
81666;Laerm;71083;51.796;10.952;2023-07-08T00:13:16;60.62;30.87;76.20;;
81666;Laerm;71083;51.796;10.952;2023-07-08T00:15:43;54.93;30.48;72.63;;
81666;Laerm;71083;51.796;10.952;2023-07-08T00:18:16;57.50;30.08;72.61;;
81666;Laerm;71083;51.796;10.952;2023-07-08T00:20:43;35.33;29.82;51.33;;
81666;Laerm;71083;51.796;10.952;2023-07-08T00:23:09;59.76;30.79;74.02;;
81666;Laerm;71083;51.796;10.952;2023-07-08T00:25:35;32.06;29.69;38.63;;
81666;Laerm;71083;51.796;10.952;2023-07-08T00:28:00;33.94;29.81;43.97;;
81666;Laerm;71083;51.796;10.952;2023-07-08T00:30:26;50.52;29.62;66.17;;
81666;Laerm;71083;51.796;10.952;2023-07-08T00:32:52;49.53;30.61;63.07;;
81666;Laerm;71083;51.796;10.952;2023-07-08T00:35:21;51.63;29.41;68.17;;
81666;Laerm;71083;51.796;10.952;2023-07-08T00:37:47;56.11;30.60;68.63;;
81666;Laerm;71083;51.796;10.952;2023-07-08T00:40:14;46.61;29.86;64.56;;
81666;Laerm;71083;51.796;10.952;2023-07-08T00:42:39;53.31;31.05;67.29;;
81666;Laerm;71083;51.796;10.952;2023-07-08T00:45:11;53.44;31.27;70.59;;
81666;Laerm;71083;51.796;10.952;2023-07-08T00:47:40;51.96;29.81;67.85;;
81666;Laerm;71083;51.796;10.952;2023-07-08T00:50:07;56.97;30.13;74.42;;
81666;Laerm;71083;51.796;10.952;2023-07-08T00:52:34;57.28;30.04;74.57;;
81666;Laerm;71083;51.796;10.952;2023-07-08T00:55:01;34.64;30.73;40.26;;
81666;Laerm;71083;51.796;10.952;2023-07-08T00:57:30;40.05;33.70;47.63;;
81666;Laerm;71083;51.796;10.952;2023-07-08T00:59:58;50.55;39.22;57.45;;
81666;Laerm;71083;51.796;10.952;2023-07-08T01:02:25;59.62;36.74;76.62;;
81666;Laerm;71083;51.796;10.952;2023-07-08T01:04:52;55.79;30.91;70.64;;
81666;Laerm;71083;51.796;10.952;2023-07-08T01:07:20;39.41;30.60;51.96;;
81666;Laerm;71083;51.796;10.952;2023-07-08T01:09:47;55.72;30.19;72.38;;
81666;Laerm;71083;51.796;10.952;2023-07-08T01:12:16;36.08;29.84;47.08;;
81666;Laerm;71083;51.796;10.952;2023-07-08T01:14:44;55.72;31.53;69.61;;
81666;Laerm;71083;51.796;10.952;2023-07-08T01:17:10;60.25;30.95;73.21;;
81666;Laerm;71083;51.796;10.952;2023-07-08T01:19:43;55.45;29.82;73.26;;
81666;Laerm;71083;51.796;10.952;2023-07-08T01:22:10;37.53;29.64;50.03;;
81666;Laerm;71083;51.796;10.952;2023-07-08T01:24:36;34.20;29.11;46.28;;
81666;Laerm;71083;51.796;10.952;2023-07-08T01:27:05;30.70;29.10;36.34;;
81666;Laerm;71083;51.796;10.952;2023-07-08T01:29:31;55.98;28.87;74.84;;
81666;Laerm;71083;51.796;10.952;2023-07-08T01:31:57;54.15;31.05;71.50;;
81666;Laerm;71083;51.796;10.952;2023-07-08T01:34:23;32.88;29.68;39.72;;
81666;Laerm;71083;51.796;10.952;2023-07-08T01:36:50;31.87;29.40;37.00;;
81666;Laerm;71083;51.796;10.952;2023-07-08T01:39:17;51.39;29.43;67.09;;
81666;Laerm;71083;51.796;10.952;2023-07-08T01:41:44;58.41;30.60;73.96;;
81666;Laerm;71083;51.796;10.952;2023-07-08T01:46:53;54.19;30.77;71.79;;
81666;Laerm;71083;51.796;10.952;2023-07-08T01:49:20;36.23;30.37;46.04;;
81666;Laerm;71083;51.796;10.952;2023-07-08T01:51:47;34.27;31.23;45.94;;
81666;Laerm;71083;51.796;10.952;2023-07-08T01:54:13;53.12;31.55;69.73;;
81666;Laerm;71083;51.796;10.952;2023-07-08T01:56:39;59.56;31.81;77.75;;
81666;Laerm;71083;51.796;10.952;2023-07-08T01:59:04;38.96;30.68;49.54;;
81666;Laerm;71083;51.796;10.952;2023-07-08T02:01:29;54.65;30.67;71.01;;
81666;Laerm;71083;51.796;10.952;2023-07-08T02:03:55;39.75;31.59;49.33;;
81666;Laerm;71083;51.796;10.952;2023-07-08T02:06:20;53.44;31.29;71.29;;
81666;Laerm;71083;51.796;10.952;2023-07-08T02:08:45;63.13;35.43;76.65;;
81666;Laerm;71083;51.796;10.952;2023-07-08T02:11:12;48.04;32.94;66.93;;
81666;Laerm;71083;51.796;10.952;2023-07-08T02:13:37;58.43;35.00;74.08;;
81666;Laerm;71083;51.796;10.952;2023-07-08T02:16:02;52.51;33.68;68.42;;
81666;Laerm;71083;51.796;10.952;2023-07-08T02:18:28;53.84;32.88;69.18;;
81666;Laerm;71083;51.796;10.952;2023-07-08T02:20:57;58.47;33.99;74.99;;
81666;Laerm;71083;51.796;10.952;2023-07-08T02:23:23;37.95;33.79;43.73;;
81666;Laerm;71083;51.796;10.952;2023-07-08T02:25:54;51.70;33.11;67.62;;
81666;Laerm;71083;51.796;10.952;2023-07-08T02:28:19;58.23;33.75;71.18;;
81666;Laerm;71083;51.796;10.952;2023-07-08T02:30:45;62.99;33.79;76.68;;
81666;Laerm;71083;51.796;10.952;2023-07-08T02:33:11;62.53;33.99;80.21;;
81666;Laerm;71083;51.796;10.952;2023-07-08T02:35:36;58.66;34.35;72.37;;
81666;Laerm;71083;51.796;10.952;2023-07-08T02:38:02;55.56;33.99;71.43;;
81666;Laerm;71083;51.796;10.952;2023-07-08T02:40:28;59.46;35.70;75.70;;
81666;Laerm;71083;51.796;10.952;2023-07-08T02:42:53;48.33;34.69;58.23;;
81666;Laerm;71083;51.796;10.952;2023-07-08T02:45:19;57.18;34.68;70.85;;
81666;Laerm;71083;51.796;10.952;2023-07-08T02:47:44;57.27;36.79;68.56;;
81666;Laerm;71083;51.796;10.952;2023-07-08T02:50:10;55.76;33.56;71.22;;
81666;Laerm;71083;51.796;10.952;2023-07-08T02:52:35;48.78;36.60;58.23;;
81666;Laerm;71083;51.796;10.952;2023-07-08T02:55:01;55.29;36.90;70.15;;
81666;Laerm;71083;51.796;10.952;2023-07-08T02:57:26;59.98;35.36;75.17;;
81666;Laerm;71083;51.796;10.952;2023-07-08T02:59:51;65.24;39.60;81.14;;
81666;Laerm;71083;51.796;10.952;2023-07-08T03:02:17;53.89;36.69;68.58;;
81666;Laerm;71083;51.796;10.952;2023-07-08T03:04:42;58.94;37.86;73.00;;
81666;Laerm;71083;51.796;10.952;2023-07-08T03:07:08;50.24;34.69;65.82;;
81666;Laerm;71083;51.796;10.952;2023-07-08T03:09:37;61.36;37.84;74.60;;
81666;Laerm;71083;51.796;10.952;2023-07-08T03:12:02;61.00;37.71;74.17;;
81666;Laerm;71083;51.796;10.952;2023-07-08T03:14:28;57.06;34.31;71.37;;
81666;Laerm;71083;51.796;10.952;2023-07-08T03:16:53;54.92;35.27;67.59;;
81666;Laerm;71083;51.796;10.952;2023-07-08T03:19:18;64.01;35.88;76.44;;
81666;Laerm;71083;51.796;10.952;2023-07-08T03:21:45;60.88;34.18;75.16;;
81666;Laerm;71083;51.796;10.952;2023-07-08T03:24:10;60.46;37.93;74.08;;
81666;Laerm;71083;51.796;10.952;2023-07-08T03:26:37;61.26;37.87;72.75;;
81666;Laerm;71083;51.796;10.952;2023-07-08T03:29:02;64.53;39.82;80.62;;
81666;Laerm;71083;51.796;10.952;2023-07-08T03:31:28;62.27;37.31;75.89;;
81666;Laerm;71083;51.796;10.952;2023-07-08T03:33:53;55.99;35.60;70.29;;
81666;Laerm;71083;51.796;10.952;2023-07-08T03:36:22;58.10;36.54;72.06;;
81666;Laerm;71083;51.796;10.952;2023-07-08T03:38:54;61.71;39.06;73.88;;
81666;Laerm;71083;51.796;10.952;2023-07-08T03:41:20;67.15;39.85;81.85;;
81666;Laerm;71083;51.796;10.952;2023-07-08T03:43:45;55.11;36.61;72.08;;
81666;Laerm;71083;51.796;10.952;2023-07-08T03:46:11;58.31;35.11;69.57;;
81666;Laerm;71083;51.796;10.952;2023-07-08T03:48:38;61.39;38.45;74.66;;
81666;Laerm;71083;51.796;10.952;2023-07-08T03:51:04;62.89;35.89;75.18;;
81666;Laerm;71083;51.796;10.952;2023-07-08T03:53:29;61.66;37.00;73.94;;
81666;Laerm;71083;51.796;10.952;2023-07-08T03:55:55;60.75;34.51;73.67;;
81666;Laerm;71083;51.796;10.952;2023-07-08T03:58:20;61.23;35.38;76.09;;
81666;Laerm;71083;51.796;10.952;2023-07-08T04:00:45;59.88;34.51;73.12;;
81666;Laerm;71083;51.796;10.952;2023-07-08T04:03:11;55.85;35.09;69.15;;
81666;Laerm;71083;51.796;10.952;2023-07-08T04:05:36;57.51;36.31;70.80;;
81666;Laerm;71083;51.796;10.952;2023-07-08T04:08:02;60.29;35.93;75.92;;
81666;Laerm;71083;51.796;10.952;2023-07-08T04:10:27;57.22;35.97;71.04;;
81666;Laerm;71083;51.796;10.952;2023-07-08T04:12:52;59.56;36.60;71.88;;
81666;Laerm;71083;51.796;10.952;2023-07-08T04:15:18;62.76;39.47;78.95;;
81666;Laerm;71083;51.796;10.952;2023-07-08T04:17:45;62.87;40.56;74.12;;
81666;Laerm;71083;51.796;10.952;2023-07-08T04:20:13;62.75;34.47;74.02;;
81666;Laerm;71083;51.796;10.952;2023-07-08T04:22:39;64.91;38.62;79.51;;
81666;Laerm;71083;51.796;10.952;2023-07-08T04:25:05;57.26;37.32;73.49;;
81666;Laerm;71083;51.796;10.952;2023-07-08T04:27:31;61.60;38.86;73.72;;
81666;Laerm;71083;51.796;10.952;2023-07-08T04:29:56;63.03;39.21;77.26;;
81666;Laerm;71083;51.796;10.952;2023-07-08T04:32:21;62.84;37.09;72.89;;
81666;Laerm;71083;51.796;10.952;2023-07-08T04:34:50;64.05;36.86;75.68;;
81666;Laerm;71083;51.796;10.952;2023-07-08T04:37:15;60.33;36.84;74.64;;
81666;Laerm;71083;51.796;10.952;2023-07-08T04:39:40;61.46;39.75;73.60;;
81666;Laerm;71083;51.796;10.952;2023-07-08T04:42:06;60.69;37.58;73.56;;
81666;Laerm;71083;51.796;10.952;2023-07-08T04:44:31;63.48;37.67;74.93;;
81666;Laerm;71083;51.796;10.952;2023-07-08T04:46:57;61.17;38.91;74.13;;
81666;Laerm;71083;51.796;10.952;2023-07-08T04:49:24;64.14;36.84;75.93;;
81666;Laerm;71083;51.796;10.952;2023-07-08T04:51:56;62.81;39.60;74.33;;
81666;Laerm;71083;51.796;10.952;2023-07-08T04:54:22;63.63;38.10;75.99;;
81666;Laerm;71083;51.796;10.952;2023-07-08T04:56:47;61.19;36.91;72.75;;
81666;Laerm;71083;51.796;10.952;2023-07-08T04:59:17;61.57;39.66;75.87;;
81666;Laerm;71083;51.796;10.952;2023-07-08T05:01:43;59.62;38.94;72.02;;
81666;Laerm;71083;51.796;10.952;2023-07-08T05:04:09;60.29;35.01;72.82;;
81666;Laerm;71083;51.796;10.952;2023-07-08T05:06:35;65.99;37.58;77.07;;
81666;Laerm;71083;51.796;10.952;2023-07-08T05:09:00;63.33;38.21;80.61;;
81666;Laerm;71083;51.796;10.952;2023-07-08T05:11:26;60.05;35.18;71.20;;
81666;Laerm;71083;51.796;10.952;2023-07-08T05:13:54;63.37;40.39;78.49;;
81666;Laerm;71083;51.796;10.952;2023-07-08T05:16:19;60.00;37.93;72.14;;
81666;Laerm;71083;51.796;10.952;2023-07-08T05:18:45;65.08;40.86;80.57;;
81666;Laerm;71083;51.796;10.952;2023-07-08T05:21:10;63.72;40.83;73.15;;
81666;Laerm;71083;51.796;10.952;2023-07-08T05:23:36;64.42;39.49;74.99;;
81666;Laerm;71083;51.796;10.952;2023-07-08T05:26:02;59.50;38.76;72.24;;
81666;Laerm;71083;51.796;10.952;2023-07-08T05:28:27;61.33;41.27;70.71;;
81666;Laerm;71083;51.796;10.952;2023-07-08T05:30:53;64.73;38.47;73.94;;
81666;Laerm;71083;51.796;10.952;2023-07-08T05:33:20;62.05;38.40;73.52;;
81666;Laerm;71083;51.796;10.952;2023-07-08T05:35:45;64.70;37.89;75.86;;
81666;Laerm;71083;51.796;10.952;2023-07-08T05:38:10;62.56;37.82;76.75;;
81666;Laerm;71083;51.796;10.952;2023-07-08T05:40:36;65.94;40.18;75.68;;
81666;Laerm;71083;51.796;10.952;2023-07-08T05:43:01;65.17;39.26;74.78;;
81666;Laerm;71083;51.796;10.952;2023-07-08T05:45:26;63.04;38.26;72.84;;
81666;Laerm;71083;51.796;10.952;2023-07-08T05:47:51;64.04;38.62;75.57;;
81666;Laerm;71083;51.796;10.952;2023-07-08T05:50:17;64.96;39.96;74.55;;
81666;Laerm;71083;51.796;10.952;2023-07-08T05:52:42;65.51;38.94;78.43;;
81666;Laerm;71083;51.796;10.952;2023-07-08T05:55:07;62.51;39.37;73.25;;
81666;Laerm;71083;51.796;10.952;2023-07-08T05:57:33;64.75;38.17;76.01;;
81666;Laerm;71083;51.796;10.952;2023-07-08T05:59:58;62.52;43.43;73.37;;
81666;Laerm;71083;51.796;10.952;2023-07-08T06:02:24;65.66;38.31;77.14;;
81666;Laerm;71083;51.796;10.952;2023-07-08T06:04:51;64.19;39.65;74.64;;
81666;Laerm;71083;51.796;10.952;2023-07-08T06:07:16;64.27;41.98;74.44;;
81666;Laerm;71083;51.796;10.952;2023-07-08T06:09:42;62.43;41.94;74.22;;
81666;Laerm;71083;51.796;10.952;2023-07-08T06:12:07;66.24;41.67;74.35;;
81666;Laerm;71083;51.796;10.952;2023-07-08T06:14:32;64.39;42.85;74.83;;
81666;Laerm;71083;51.796;10.952;2023-07-08T06:16:58;64.10;40.60;74.02;;
81666;Laerm;71083;51.796;10.952;2023-07-08T06:19:23;65.37;40.12;74.61;;
81666;Laerm;71083;51.796;10.952;2023-07-08T06:21:49;66.82;42.46;75.77;;
81666;Laerm;71083;51.796;10.952;2023-07-08T06:24:14;63.51;50.09;76.92;;
81666;Laerm;71083;51.796;10.952;2023-07-08T06:26:39;64.54;40.83;73.64;;
81666;Laerm;71083;51.796;10.952;2023-07-08T06:29:05;66.12;41.40;74.65;;
81666;Laerm;71083;51.796;10.952;2023-07-08T06:31:30;66.52;43.55;77.22;;
81666;Laerm;71083;51.796;10.952;2023-07-08T06:33:56;63.82;45.43;74.56;;
81666;Laerm;71083;51.796;10.952;2023-07-08T06:36:21;65.83;41.70;75.68;;
81666;Laerm;71083;51.796;10.952;2023-07-08T06:38:47;63.64;40.37;76.82;;
81666;Laerm;71083;51.796;10.952;2023-07-08T06:41:12;65.04;40.82;74.45;;
81666;Laerm;71083;51.796;10.952;2023-07-08T06:43:37;66.33;48.65;73.88;;
81666;Laerm;71083;51.796;10.952;2023-07-08T06:46:03;65.34;41.62;74.85;;
81666;Laerm;71083;51.796;10.952;2023-07-08T06:48:28;66.64;40.29;75.35;;
81666;Laerm;71083;51.796;10.952;2023-07-08T06:50:54;66.72;41.57;81.07;;
81666;Laerm;71083;51.796;10.952;2023-07-08T06:53:19;66.57;51.94;75.58;;
81666;Laerm;71083;51.796;10.952;2023-07-08T06:55:45;67.97;48.95;74.78;;
81666;Laerm;71083;51.796;10.952;2023-07-08T06:58:10;65.00;42.19;75.80;;
81666;Laerm;71083;51.796;10.952;2023-07-08T07:00:36;66.43;42.32;78.00;;
81666;Laerm;71083;51.796;10.952;2023-07-08T07:03:01;65.63;42.73;74.68;;
81666;Laerm;71083;51.796;10.952;2023-07-08T07:05:26;66.93;47.62;75.51;;
81666;Laerm;71083;51.796;10.952;2023-07-08T07:07:52;64.25;40.73;74.65;;
81666;Laerm;71083;51.796;10.952;2023-07-08T07:10:18;65.25;44.05;75.44;;
81666;Laerm;71083;51.796;10.952;2023-07-08T07:12:43;65.66;47.71;76.17;;
81666;Laerm;71083;51.796;10.952;2023-07-08T07:15:08;66.71;48.09;80.93;;
81666;Laerm;71083;51.796;10.952;2023-07-08T07:17:34;64.96;48.40;73.52;;
81666;Laerm;71083;51.796;10.952;2023-07-08T07:20:01;66.31;42.02;73.37;;
81666;Laerm;71083;51.796;10.952;2023-07-08T07:22:26;64.18;48.06;75.35;;
81666;Laerm;71083;51.796;10.952;2023-07-08T07:24:52;64.30;41.18;71.78;;
81666;Laerm;71083;51.796;10.952;2023-07-08T07:27:17;68.05;46.64;82.26;;
81666;Laerm;71083;51.796;10.952;2023-07-08T07:32:08;67.85;56.02;75.65;;
81666;Laerm;71083;51.796;10.952;2023-07-08T07:34:33;68.49;45.52;82.19;;
81666;Laerm;71083;51.796;10.952;2023-07-08T07:36:59;68.84;45.72;78.51;;
81666;Laerm;71083;51.796;10.952;2023-07-08T07:39:24;68.05;48.66;77.05;;
81666;Laerm;71083;51.796;10.952;2023-07-08T07:41:49;65.56;40.70;73.29;;
81666;Laerm;71083;51.796;10.952;2023-07-08T07:44:15;64.68;47.77;73.12;;
81666;Laerm;71083;51.796;10.952;2023-07-08T07:46:40;68.43;50.14;78.22;;
81666;Laerm;71083;51.796;10.952;2023-07-08T07:49:05;67.62;56.25;74.64;;
81666;Laerm;71083;51.796;10.952;2023-07-08T07:51:31;65.39;47.15;72.91;;
81666;Laerm;71083;51.796;10.952;2023-07-08T07:53:57;70.48;48.50;84.83;;
81666;Laerm;71083;51.796;10.952;2023-07-08T07:56:22;67.37;45.79;74.94;;
81666;Laerm;71083;51.796;10.952;2023-07-08T07:58:47;67.76;48.66;81.44;;
81666;Laerm;71083;51.796;10.952;2023-07-08T08:01:13;66.21;52.95;74.02;;
81666;Laerm;71083;51.796;10.952;2023-07-08T08:03:38;68.20;56.05;73.25;;
81666;Laerm;71083;51.796;10.952;2023-07-08T08:06:04;67.49;44.13;75.07;;
81666;Laerm;71083;51.796;10.952;2023-07-08T08:08:29;67.68;53.59;80.15;;
81666;Laerm;71083;51.796;10.952;2023-07-08T08:10:55;68.80;52.06;79.74;;
81666;Laerm;71083;51.796;10.952;2023-07-08T08:13:20;68.46;53.54;78.99;;
81666;Laerm;71083;51.796;10.952;2023-07-08T08:15:45;67.60;43.73;74.49;;
81666;Laerm;71083;51.796;10.952;2023-07-08T08:18:11;68.45;52.00;76.95;;
81666;Laerm;71083;51.796;10.952;2023-07-08T08:20:37;68.60;39.37;83.90;;
81666;Laerm;71083;51.796;10.952;2023-07-08T08:23:04;66.63;47.34;73.91;;
81666;Laerm;71083;51.796;10.952;2023-07-08T08:25:32;66.87;54.76;77.44;;
81666;Laerm;71083;51.796;10.952;2023-07-08T08:27:57;66.01;46.74;74.64;;
81666;Laerm;71083;51.796;10.952;2023-07-08T08:30:22;67.13;54.50;75.27;;
81666;Laerm;71083;51.796;10.952;2023-07-08T08:32:48;65.96;49.85;74.85;;
81666;Laerm;71083;51.796;10.952;2023-07-08T08:35:13;68.40;54.36;76.37;;
81666;Laerm;71083;51.796;10.952;2023-07-08T08:37:38;67.81;52.24;80.39;;
81666;Laerm;71083;51.796;10.952;2023-07-08T08:40:04;67.98;50.68;75.10;;
81666;Laerm;71083;51.796;10.952;2023-07-08T08:42:34;68.01;48.48;82.13;;
81666;Laerm;71083;51.796;10.952;2023-07-08T08:45:00;69.30;47.10;81.82;;
81666;Laerm;71083;51.796;10.952;2023-07-08T08:50:03;66.47;42.68;73.58;;
81666;Laerm;71083;51.796;10.952;2023-07-08T08:52:29;67.86;53.75;78.25;;
81666;Laerm;71083;51.796;10.952;2023-07-08T08:54:55;67.55;54.53;73.87;;
81666;Laerm;71083;51.796;10.952;2023-07-08T08:59:55;69.27;50.26;81.07;;
81666;Laerm;71083;51.796;10.952;2023-07-08T09:02:23;68.68;43.93;79.86;;
81666;Laerm;71083;51.796;10.952;2023-07-08T09:04:52;74.09;52.13;94.99;;
81666;Laerm;71083;51.796;10.952;2023-07-08T09:07:18;68.53;51.84;77.09;;
81666;Laerm;71083;51.796;10.952;2023-07-08T09:12:11;68.40;45.58;74.48;;
81666;Laerm;71083;51.796;10.952;2023-07-08T09:14:38;66.54;47.81;74.05;;
81666;Laerm;71083;51.796;10.952;2023-07-08T09:17:14;67.67;49.78;74.76;;
81666;Laerm;71083;51.796;10.952;2023-07-08T09:19:48;67.54;49.31;77.66;;
81666;Laerm;71083;51.796;10.952;2023-07-08T09:24:56;67.50;45.53;75.85;;
81666;Laerm;71083;51.796;10.952;2023-07-08T09:27:24;69.45;52.27;81.59;;
81666;Laerm;71083;51.796;10.952;2023-07-08T09:29:49;77.64;49.33;99.12;;
81666;Laerm;71083;51.796;10.952;2023-07-08T09:32:17;68.10;46.76;75.08;;
81666;Laerm;71083;51.796;10.952;2023-07-08T09:34:45;67.64;51.80;75.94;;
81666;Laerm;71083;51.796;10.952;2023-07-08T09:37:24;69.06;47.95;76.07;;
81666;Laerm;71083;51.796;10.952;2023-07-08T09:39:51;67.38;53.49;74.00;;
81666;Laerm;71083;51.796;10.952;2023-07-08T09:42:16;67.11;54.02;76.54;;
81666;Laerm;71083;51.796;10.952;2023-07-08T09:44:43;66.18;53.11;73.51;;
81666;Laerm;71083;51.796;10.952;2023-07-08T09:47:20;68.80;51.81;79.66;;
81666;Laerm;71083;51.796;10.952;2023-07-08T09:49:48;67.07;48.75;78.11;;
81666;Laerm;71083;51.796;10.952;2023-07-08T09:52:14;68.52;44.46;80.16;;
81666;Laerm;71083;51.796;10.952;2023-07-08T09:54:42;67.78;50.26;79.37;;
81666;Laerm;71083;51.796;10.952;2023-07-08T09:57:18;68.33;49.75;75.00;;
81666;Laerm;71083;51.796;10.952;2023-07-08T09:59:47;67.93;47.13;78.05;;
81666;Laerm;71083;51.796;10.952;2023-07-08T10:02:21;67.02;46.23;76.93;;
81666;Laerm;71083;51.796;10.952;2023-07-08T10:04:54;67.95;49.02;74.89;;
81666;Laerm;71083;51.796;10.952;2023-07-08T10:07:21;67.71;49.94;76.67;;
81666;Laerm;71083;51.796;10.952;2023-07-08T10:09:47;68.28;51.38;74.27;;
81666;Laerm;71083;51.796;10.952;2023-07-08T10:12:14;69.48;47.18;82.31;;
81666;Laerm;71083;51.796;10.952;2023-07-08T10:14:42;68.07;47.69;76.48;;
81666;Laerm;71083;51.796;10.952;2023-07-08T10:17:16;69.07;50.03;79.93;;
81666;Laerm;71083;51.796;10.952;2023-07-08T10:19:41;68.66;50.08;82.14;;
81666;Laerm;71083;51.796;10.952;2023-07-08T10:22:19;68.16;46.43;75.40;;
81666;Laerm;71083;51.796;10.952;2023-07-08T10:27:39;68.59;45.08;86.20;;
81666;Laerm;71083;51.796;10.952;2023-07-08T10:32:34;67.53;48.69;73.96;;
81666;Laerm;71083;51.796;10.952;2023-07-08T10:35:13;65.14;45.56;74.68;;
81666;Laerm;71083;51.796;10.952;2023-07-08T10:37:46;67.62;46.06;80.89;;
81666;Laerm;71083;51.796;10.952;2023-07-08T10:48:02;70.23;50.26;84.63;;
81666;Laerm;71083;51.796;10.952;2023-07-08T10:50:46;68.49;44.75;81.21;;
81666;Laerm;71083;51.796;10.952;2023-07-08T10:58:46;68.33;52.10;81.65;;
81666;Laerm;71083;51.796;10.952;2023-07-08T11:06:10;65.82;45.68;74.63;;
81666;Laerm;71083;51.796;10.952;2023-07-08T11:08:41;68.19;43.80;76.30;;
81666;Laerm;71083;51.796;10.952;2023-07-08T11:11:27;71.02;44.60;88.57;;
81666;Laerm;71083;51.796;10.952;2023-07-08T11:13:55;70.48;51.51;86.37;;
81666;Laerm;71083;51.796;10.952;2023-07-08T11:16:25;66.75;49.76;73.70;;
81666;Laerm;71083;51.796;10.952;2023-07-08T11:19:08;68.35;48.54;82.11;;
81666;Laerm;71083;51.796;10.952;2023-07-08T11:21:38;68.34;48.96;75.90;;
81666;Laerm;71083;51.796;10.952;2023-07-08T11:26:50;67.67;47.59;75.91;;
81666;Laerm;71083;51.796;10.952;2023-07-08T11:29:17;68.21;55.84;79.19;;
81666;Laerm;71083;51.796;10.952;2023-07-08T11:31:44;67.88;51.29;77.07;;
81666;Laerm;71083;51.796;10.952;2023-07-08T11:34:09;66.66;46.46;76.52;;
81666;Laerm;71083;51.796;10.952;2023-07-08T11:36:36;72.84;48.67;89.73;;
81666;Laerm;71083;51.796;10.952;2023-07-08T11:39:02;68.80;53.30;76.93;;
81666;Laerm;71083;51.796;10.952;2023-07-08T11:41:48;67.08;50.68;76.24;;
81666;Laerm;71083;51.796;10.952;2023-07-08T11:44:17;72.18;50.57;93.00;;
81666;Laerm;71083;51.796;10.952;2023-07-08T11:46:52;72.96;53.96;84.11;;
81666;Laerm;71083;51.796;10.952;2023-07-08T11:49:18;79.61;48.52;95.34;;
81666;Laerm;71083;51.796;10.952;2023-07-08T11:51:44;67.75;46.92;75.44;;
81666;Laerm;71083;51.796;10.952;2023-07-08T11:54:27;67.94;54.26;76.52;;
81666;Laerm;71083;51.796;10.952;2023-07-08T11:59:21;66.59;42.75;75.83;;
81666;Laerm;71083;51.796;10.952;2023-07-08T12:04:20;66.39;49.37;79.17;;
81666;Laerm;71083;51.796;10.952;2023-07-08T12:06:50;76.10;47.97;84.36;;
81666;Laerm;71083;51.796;10.952;2023-07-08T12:09:23;69.84;54.18;84.53;;
81666;Laerm;71083;51.796;10.952;2023-07-08T12:11:52;67.77;52.10;82.04;;
81666;Laerm;71083;51.796;10.952;2023-07-08T12:14:18;66.86;48.95;73.22;;
81666;Laerm;71083;51.796;10.952;2023-07-08T12:16:43;68.38;52.78;74.29;;
81666;Laerm;71083;51.796;10.952;2023-07-08T12:19:10;65.43;44.34;77.16;;
81666;Laerm;71083;51.796;10.952;2023-07-08T12:21:37;69.52;52.55;83.36;;
81666;Laerm;71083;51.796;10.952;2023-07-08T12:24:03;70.82;49.26;87.82;;
81666;Laerm;71083;51.796;10.952;2023-07-08T12:26:28;69.48;51.96;83.77;;
81666;Laerm;71083;51.796;10.952;2023-07-08T12:28:54;67.92;54.26;78.33;;
81666;Laerm;71083;51.796;10.952;2023-07-08T12:31:22;66.01;52.00;73.62;;
81666;Laerm;71083;51.796;10.952;2023-07-08T12:33:48;69.35;50.82;77.51;;
81666;Laerm;71083;51.796;10.952;2023-07-08T12:36:18;69.65;46.21;85.65;;
81666;Laerm;71083;51.796;10.952;2023-07-08T12:38:44;66.97;48.81;80.39;;
81666;Laerm;71083;51.796;10.952;2023-07-08T12:41:20;67.50;50.93;74.65;;
81666;Laerm;71083;51.796;10.952;2023-07-08T12:43:46;66.52;51.59;76.86;;
81666;Laerm;71083;51.796;10.952;2023-07-08T12:46:12;66.95;45.38;75.66;;
81666;Laerm;71083;51.796;10.952;2023-07-08T12:48:39;68.13;50.02;74.88;;
81666;Laerm;71083;51.796;10.952;2023-07-08T12:51:06;66.52;54.63;77.68;;
81666;Laerm;71083;51.796;10.952;2023-07-08T12:53:32;68.36;47.32;81.37;;
81666;Laerm;71083;51.796;10.952;2023-07-08T12:55:59;67.96;55.92;81.69;;
81666;Laerm;71083;51.796;10.952;2023-07-08T12:58:25;67.15;48.98;77.30;;
81666;Laerm;71083;51.796;10.952;2023-07-08T13:00:53;69.09;46.78;84.11;;
81666;Laerm;71083;51.796;10.952;2023-07-08T13:03:19;66.68;45.59;76.03;;
81666;Laerm;71083;51.796;10.952;2023-07-08T13:05:47;65.14;44.62;75.61;;
81666;Laerm;71083;51.796;10.952;2023-07-08T13:08:14;67.76;56.12;77.14;;
81666;Laerm;71083;51.796;10.952;2023-07-08T13:10:40;69.71;55.32;82.99;;
81666;Laerm;71083;51.796;10.952;2023-07-08T13:13:07;66.11;52.25;77.66;;
81666;Laerm;71083;51.796;10.952;2023-07-08T13:15:35;69.15;51.26;80.56;;
81666;Laerm;71083;51.796;10.952;2023-07-08T13:18:01;67.19;47.28;77.54;;
81666;Laerm;71083;51.796;10.952;2023-07-08T13:20:27;66.21;42.75;73.26;;
81666;Laerm;71083;51.796;10.952;2023-07-08T13:22:58;68.82;55.89;86.04;;
81666;Laerm;71083;51.796;10.952;2023-07-08T13:25:26;66.61;43.85;77.68;;
81666;Laerm;71083;51.796;10.952;2023-07-08T13:27:56;67.09;48.95;76.71;;
81666;Laerm;71083;51.796;10.952;2023-07-08T13:30:23;66.30;45.54;74.09;;
81666;Laerm;71083;51.796;10.952;2023-07-08T13:32:55;64.76;47.96;72.78;;
81666;Laerm;71083;51.796;10.952;2023-07-08T13:37:48;68.15;45.93;80.47;;
81666;Laerm;71083;51.796;10.952;2023-07-08T13:40:15;65.85;49.34;77.29;;
81666;Laerm;71083;51.796;10.952;2023-07-08T13:42:46;67.78;41.86;78.50;;
81666;Laerm;71083;51.796;10.952;2023-07-08T13:45:45;67.75;44.29;79.90;;
81666;Laerm;71083;51.796;10.952;2023-07-08T13:50:35;67.18;46.22;81.29;;
81666;Laerm;71083;51.796;10.952;2023-07-08T13:53:13;66.68;45.94;77.34;;
81666;Laerm;71083;51.796;10.952;2023-07-08T13:55:40;63.73;44.90;74.68;;
81666;Laerm;71083;51.796;10.952;2023-07-08T13:58:05;65.53;47.29;78.76;;
81666;Laerm;71083;51.796;10.952;2023-07-08T14:00:35;65.01;52.69;77.06;;
81666;Laerm;71083;51.796;10.952;2023-07-08T14:03:01;68.24;41.65;78.97;;
81666;Laerm;71083;51.796;10.952;2023-07-08T14:05:26;66.99;53.72;76.53;;
81666;Laerm;71083;51.796;10.952;2023-07-08T14:07:52;64.31;47.44;72.05;;
81666;Laerm;71083;51.796;10.952;2023-07-08T14:10:17;82.49;50.39;103.23;;
81666;Laerm;71083;51.796;10.952;2023-07-08T14:12:43;67.32;49.98;79.93;;
81666;Laerm;71083;51.796;10.952;2023-07-08T14:15:08;65.84;45.43;74.14;;
81666;Laerm;71083;51.796;10.952;2023-07-08T14:17:33;77.58;49.95;96.35;;
81666;Laerm;71083;51.796;10.952;2023-07-08T14:19:59;65.84;49.74;75.14;;
81666;Laerm;71083;51.796;10.952;2023-07-08T14:22:30;65.96;45.02;75.44;;